createdAt,value
2023-01-13T00:04:47.879Z,89.21
2023-01-13T00:09:53.473Z,89.56
2023-01-13T00:14:58.974Z,89.81
2023-01-13T00:20:04.794Z,89.75
2023-01-13T00:25:10.978Z,89.82
2023-01-13T00:30:16.856Z,89.84
2023-01-13T00:35:22.809Z,90.33
2023-01-13T00:40:28.799Z,90.22
2023-01-13T00:45:34.358Z,90.20
2023-01-13T00:50:39.938Z,90.41
2023-01-13T00:55:45.496Z,90.36
2023-01-13T01:00:51.059Z,90.51
2023-01-13T01:05:57.343Z,90.68
2023-01-13T01:11:11.472Z,90.85
2023-01-13T01:16:18.922Z,91.11
2023-01-13T01:21:26.627Z,91.23
2023-01-13T01:26:33.301Z,91.59
2023-01-13T01:31:38.948Z,91.74
2023-01-13T01:36:44.544Z,91.71
2023-01-13T01:42:07.800Z,91.82
2023-01-13T01:47:16.282Z,91.88
2023-01-13T01:52:27.492Z,91.99
2023-01-13T01:57:44.793Z,92.02
2023-01-13T02:02:52.778Z,92.42
2023-01-13T02:08:00.046Z,92.52
2023-01-13T02:13:08.498Z,92.47
2023-01-13T02:18:19.732Z,92.40
2023-01-13T02:23:58.282Z,92.67
2023-01-13T02:29:30.772Z,92.26
2023-01-13T02:34:42.526Z,92.53
2023-01-13T02:40:02.997Z,92.43
2023-01-13T02:45:14.699Z,92.80
2023-01-13T02:50:23.475Z,92.40
2023-01-13T02:55:31.928Z,92.40
2023-01-13T03:00:38.915Z,92.30
2023-01-13T03:05:47.540Z,92.51
2023-01-13T03:11:11.074Z,91.89
2023-01-13T03:16:51.483Z,91.78
2023-01-13T03:22:11.721Z,91.88
2023-01-13T03:27:29.183Z,91.60
2023-01-13T03:32:37.619Z,91.61
2023-01-13T03:37:46.054Z,91.52
2023-01-13T03:43:15.065Z,91.28
2023-01-13T03:48:23.443Z,91.08
2023-01-13T03:53:37.544Z,90.94
2023-01-13T03:58:46.039Z,90.89
2023-01-13T04:04:00.317Z,90.91
2023-01-13T04:09:11.652Z,90.55
2023-01-13T04:14:19.613Z,89.91
2023-01-13T04:19:25.310Z,90.10
2023-01-13T04:24:30.702Z,89.92
2023-01-13T04:29:36.176Z,89.63
2023-01-13T04:34:42.025Z,89.60
2023-01-13T04:39:47.405Z,89.40
2023-01-13T04:44:52.926Z,88.79
2023-01-13T04:49:58.400Z,88.70
2023-01-13T04:55:03.924Z,88.78
2023-01-13T05:00:12.422Z,88.11
2023-01-13T05:05:18.108Z,87.87
2023-01-13T05:10:24.168Z,87.85
2023-01-13T05:15:47.789Z,87.66
2023-01-13T05:20:53.285Z,87.41
2023-01-13T05:25:58.811Z,86.97
2023-01-13T05:31:05.481Z,86.83
2023-01-13T05:36:11.158Z,86.83
2023-01-13T05:41:34.615Z,86.41
2023-01-13T05:46:42.150Z,86.01
2023-01-13T05:51:48.818Z,85.80
2023-01-13T05:56:54.270Z,85.31
2023-01-13T06:01:59.727Z,85.32
2023-01-13T06:07:05.183Z,84.90
2023-01-13T06:12:13.441Z,84.76
2023-01-13T06:17:18.912Z,84.24
2023-01-13T06:22:27.393Z,84.24
2023-01-13T06:27:32.957Z,83.99
2023-01-13T06:32:41.459Z,84.12
2023-01-13T06:37:48.506Z,84.13
2023-01-13T06:43:16.383Z,84.28
2023-01-13T06:48:25.163Z,84.35
2023-01-13T06:53:30.616Z,84.13
2023-01-13T06:58:35.989Z,83.87
2023-01-13T07:03:42.185Z,83.98
2023-01-13T07:08:47.828Z,83.87
2023-01-13T07:14:11.220Z,83.65
2023-01-13T07:19:18.266Z,83.71
2023-01-13T07:24:23.718Z,83.68
2023-01-13T07:29:29.114Z,83.77
2023-01-13T07:34:34.654Z,83.33
2023-01-13T07:39:40.053Z,85.42
2023-01-13T07:44:45.486Z,85.22
2023-01-13T07:49:51.670Z,84.70
2023-01-13T07:54:57.138Z,81.98
2023-01-13T08:00:02.714Z,81.73
2023-01-13T08:05:09.982Z,81.36
2023-01-13T08:10:15.430Z,81.37
2023-01-13T08:15:21.032Z,81.46
2023-01-13T08:20:26.921Z,83.15
2023-01-13T08:25:33.091Z,81.00
2023-01-13T08:30:38.685Z,80.57
2023-01-13T08:35:44.295Z,80.19
2023-01-13T08:40:49.932Z,81.60
2023-01-13T08:46:05.094Z,79.83
2023-01-13T08:51:12.498Z,81.95
2023-01-13T08:56:17.869Z,81.59
2023-01-13T09:01:24.891Z,78.38
2023-01-13T09:06:30.506Z,77.90
2023-01-13T09:11:56.832Z,77.89
2023-01-13T09:17:02.454Z,77.94
2023-01-13T09:22:07.976Z,77.76
2023-01-13T09:27:15.528Z,78.09
2023-01-13T09:32:21.161Z,78.09
2023-01-13T09:37:27.930Z,78.26
2023-01-13T09:43:03.354Z,77.58
2023-01-13T09:48:17.858Z,77.74
2023-01-13T09:53:26.353Z,77.21
2023-01-13T09:58:31.870Z,78.33
2023-01-13T10:03:37.642Z,73.35
2023-01-13T10:08:45.845Z,76.26
2023-01-13T10:13:54.319Z,76.10
2023-01-13T10:19:08.421Z,76.13
2023-01-13T10:24:16.946Z,76.17
2023-01-13T10:29:25.975Z,76.46
2023-01-13T10:34:31.560Z,76.43
2023-01-13T10:39:49.416Z,75.74
2023-01-13T10:45:00.159Z,75.76
2023-01-13T10:50:11.411Z,75.98
2023-01-13T10:55:33.399Z,76.20
2023-01-13T11:00:38.972Z,76.80
2023-01-13T11:05:50.378Z,76.02
2023-01-13T11:10:59.503Z,75.32
2023-01-13T11:16:19.227Z,75.46
2023-01-13T11:21:31.601Z,75.42
2023-01-13T11:26:54.926Z,74.38
2023-01-13T11:32:07.403Z,74.71
2023-01-13T11:37:27.977Z,74.32
2023-01-13T11:42:39.279Z,73.78
2023-01-13T11:47:47.722Z,73.91
2023-01-13T11:53:12.867Z,73.79
2023-01-13T11:58:24.180Z,73.91
2023-01-13T12:03:38.524Z,74.31
2023-01-13T12:09:02.198Z,74.38
2023-01-13T12:14:22.567Z,74.76
2023-01-13T12:19:30.263Z,73.49
2023-01-13T12:24:53.680Z,73.76
2023-01-13T12:30:01.102Z,73.60
2023-01-13T12:35:40.205Z,73.38
2023-01-13T12:41:05.370Z,72.22
2023-01-13T12:46:26.066Z,71.63
2023-01-13T12:51:34.364Z,70.96
2023-01-13T12:56:44.885Z,70.54
2023-01-13T13:01:52.737Z,69.66
2023-01-13T13:07:07.069Z,69.07
2023-01-13T13:12:52.071Z,69.06
2023-01-13T13:18:09.423Z,69.14
2023-01-13T13:23:39.218Z,68.31
2023-01-13T13:29:13.557Z,67.97
2023-01-13T13:34:22.074Z,67.61
2023-01-13T13:39:52.106Z,67.65
2023-01-13T13:45:18.349Z,67.36
2023-01-13T13:50:24.212Z,66.88
2023-01-13T13:55:31.033Z,67.17
2023-01-13T14:00:38.480Z,67.80
2023-01-13T14:05:47.025Z,67.56
2023-01-13T14:10:52.558Z,67.55
2023-01-13T14:16:06.498Z,67.71
2023-01-13T14:21:27.031Z,67.61
2023-01-13T14:26:34.215Z,67.06
2023-01-13T14:31:40.495Z,67.17
2023-01-13T14:36:47.755Z,68.00
2023-01-13T14:41:54.160Z,66.36
2023-01-13T14:47:02.807Z,66.17
2023-01-13T14:52:23.162Z,66.11
2023-01-13T14:57:32.184Z,66.07
2023-01-13T15:02:40.363Z,65.85
2023-01-13T15:08:14.924Z,65.80
2023-01-13T15:13:41.099Z,65.88
2023-01-13T15:18:48.746Z,65.85
2023-01-13T15:23:54.340Z,66.03
2023-01-13T15:29:00.829Z,65.80
2023-01-13T15:34:06.289Z,65.49
2023-01-13T15:39:13.462Z,65.24
2023-01-13T15:44:36.941Z,65.15
2023-01-13T15:49:45.172Z,65.00
2023-01-13T15:54:51.994Z,64.82
2023-01-13T16:00:00.452Z,64.68
2023-01-13T16:05:08.130Z,64.41
2023-01-13T16:10:22.345Z,64.49
2023-01-13T16:15:27.728Z,64.27
2023-01-13T16:20:33.117Z,63.96
2023-01-13T16:25:39.140Z,64.10
2023-01-13T16:30:44.529Z,63.70
2023-01-13T16:36:10.798Z,63.61
2023-01-13T16:40:58.751Z,63.45
2023-01-13T16:46:05.678Z,63.32
2023-01-13T16:51:11.310Z,63.11
2023-01-13T16:56:31.597Z,63.17
2023-01-13T17:01:40.024Z,63.38
2023-01-13T17:07:08.519Z,63.09
2023-01-13T17:12:14.113Z,62.89
2023-01-13T17:17:43.539Z,62.52
2023-01-13T17:22:57.723Z,62.59
2023-01-13T17:27:56.963Z,62.43
2023-01-13T17:33:02.497Z,62.25
2023-01-13T17:38:07.952Z,62.03
2023-01-13T17:43:13.335Z,61.82
2023-01-13T17:48:19.605Z,61.58
2023-01-13T17:53:26.653Z,61.22
2023-01-13T17:58:32.046Z,61.68
2023-01-13T18:03:38.689Z,60.70
2023-01-13T18:08:44.231Z,60.83
2023-01-13T18:13:57.873Z,60.64
2023-01-13T18:19:21.600Z,60.38
2023-01-13T18:24:45.394Z,60.41
2023-01-13T18:29:52.868Z,60.53
2023-01-13T18:35:05.767Z,60.59
2023-01-13T18:40:10.010Z,60.72
2023-01-13T18:45:15.603Z,60.79
2023-01-13T18:50:22.528Z,61.02
2023-01-13T18:55:28.893Z,61.16
2023-01-13T19:00:35.969Z,61.46
2023-01-13T19:05:43.162Z,61.77
2023-01-13T19:10:49.974Z,62.08
2023-01-13T19:15:55.445Z,62.60
2023-01-13T19:21:05.417Z,64.01
2023-01-13T19:26:12.807Z,63.47
2023-01-13T19:31:19.860Z,63.29
2023-01-13T19:36:27.039Z,63.56
2023-01-13T19:41:50.397Z,63.70
2023-01-13T19:46:55.855Z,63.87
2023-01-13T19:52:01.308Z,64.11
2023-01-13T19:57:07.627Z,64.54
2023-01-13T20:02:20.213Z,64.54
2023-01-13T20:07:31.374Z,64.66
2023-01-13T20:12:36.893Z,64.82
2023-01-13T20:17:42.657Z,64.92
2023-01-13T20:22:49.829Z,65.04
2023-01-13T20:27:56.077Z,65.23
2023-01-13T20:33:01.533Z,65.42
2023-01-13T20:38:07.250Z,65.50
2023-01-13T20:43:12.634Z,65.49
2023-01-13T20:48:18.016Z,65.62
2023-01-13T20:53:23.641Z,65.70
2023-01-13T20:58:29.026Z,65.78
2023-01-13T21:03:34.657Z,65.83
2023-01-13T21:08:40.348Z,65.81
2023-01-13T21:14:04.651Z,65.84
2023-01-13T21:19:10.919Z,66.06
2023-01-13T21:24:16.537Z,66.05
2023-01-13T21:29:23.068Z,66.08
2023-01-13T21:34:28.697Z,66.15
2023-01-13T21:39:34.239Z,66.11
2023-01-13T21:44:57.610Z,66.28
2023-01-13T21:50:04.029Z,66.27
2023-01-13T21:55:23.878Z,66.10
2023-01-13T22:00:33.207Z,66.00
2023-01-13T22:05:39.481Z,66.27
2023-01-13T22:11:00.341Z,66.63
2023-01-13T22:16:06.559Z,66.68
2023-01-13T22:21:12.349Z,67.01
2023-01-13T22:26:19.026Z,67.24
2023-01-13T22:31:25.515Z,67.45
2023-01-13T22:36:31.189Z,67.76
2023-01-13T22:41:36.640Z,67.79
2023-01-13T22:46:42.171Z,68.20
2023-01-13T22:51:48.654Z,68.20
2023-01-13T22:56:54.036Z,68.41
2023-01-13T23:01:59.559Z,68.26
2023-01-13T23:07:05.005Z,68.57
2023-01-13T23:12:10.540Z,69.03
2023-01-13T23:17:16.061Z,69.33
2023-01-13T23:22:21.510Z,69.35
2023-01-13T23:27:27.065Z,69.43
2023-01-13T23:32:32.589Z,69.54
2023-01-13T23:37:38.045Z,72.88
2023-01-13T23:42:43.502Z,68.57
2023-01-13T23:47:49.032Z,69.26
2023-01-13T23:52:54.644Z,69.76
2023-01-13T23:58:00.171Z,69.88
